Terminal Aerodrome Forecast
Issued by NWS

Home | Current Version | Previous Version | Graphics & Text | Print | Product List | Glossary On
Versions: 1 2 3 4 5 6 7 8 9 10 11 12
428
FTUS42 KMHX 220557
TAFOAJ
TAF
KOAJ 220557Z 2206/2306 00000KT P6SM -SHRA SCT015 OVC035
     FM220800 VRB03KT 3SM -SHRA SCT007 OVC025
     FM221300 VRB03KT P6SM SCT007 OVC015
     FM221600 34010KT P6SM SCT040
     FM222200 34006KT P6SM FEW250
      AMD LTD TO CLD VIS AND WIND=

USA.gov is the U.S. government's official web portal to all federal, state and local government web resources and services.